createdAt,value
2022-08-22T00:02:33.398Z,98912.16
2022-08-22T00:02:43.019Z,98863.81
2022-08-22T00:02:52.802Z,98879.81
2022-08-22T00:03:08.326Z,98851.59
2022-08-22T00:05:11.687Z,98911.28
2022-08-22T00:07:54.116Z,98912.75
2022-08-22T00:10:28.207Z,98907.81
2022-08-22T00:13:10.242Z,98912.75
2022-08-22T00:15:53.259Z,98908.25
2022-08-22T00:18:44.282Z,98905.88
2022-08-22T00:21:17.930Z,98909.00
2022-08-22T00:24:02.050Z,98912.91
2022-08-22T00:26:45.098Z,98913.63
2022-08-22T00:29:25.926Z,98910.56
2022-08-22T00:32:33.867Z,98913.03
2022-08-22T00:35:29.677Z,98911.91
2022-08-22T00:38:02.902Z,98920.16
2022-08-22T00:40:56.527Z,98913.63
2022-08-22T00:43:42.812Z,98914.03
2022-08-22T00:46:42.201Z,98911.09
2022-08-22T00:49:18.153Z,98916.19
2022-08-22T00:52:04.683Z,98914.09
2022-08-22T00:54:35.035Z,98914.56
2022-08-22T00:57:30.963Z,98928.72
2022-08-22T01:00:12.416Z,98914.00
2022-08-22T01:03:11.649Z,98920.38
2022-08-22T01:06:11.572Z,98913.19
2022-08-22T01:09:14.755Z,98922.66
2022-08-22T01:11:44.871Z,98916.19
2022-08-22T01:14:49.662Z,98919.41
2022-08-22T01:17:49.032Z,98924.91
2022-08-22T01:20:51.947Z,98919.31
2022-08-22T01:23:40.424Z,98924.13
2022-08-22T01:26:47.902Z,98921.66
2022-08-22T01:29:34.657Z,98914.28
2022-08-22T01:32:48.379Z,98924.00
2022-08-22T01:35:15.811Z,98918.16
2022-08-22T01:38:23.771Z,98922.72
2022-08-22T01:41:03.005Z,98924.78
2022-08-22T01:44:07.581Z,98925.66
2022-08-22T01:47:13.027Z,98929.00
2022-08-22T01:49:48.980Z,98926.81
2022-08-22T01:52:34.565Z,98931.41
2022-08-22T01:55:29.627Z,98927.28
2022-08-22T01:58:00.897Z,98937.69
2022-08-22T02:00:51.779Z,98930.09
2022-08-22T02:03:32.956Z,98936.53
2022-08-22T02:06:08.355Z,98929.88
2022-08-22T02:08:49.560Z,98932.66
2022-08-22T02:12:21.575Z,98927.72
2022-08-22T02:15:26.529Z,98943.19
2022-08-22T02:18:05.745Z,98943.44
2022-08-22T02:20:48.114Z,98939.38
2022-08-22T02:23:25.686Z,98938.19
2022-08-22T02:26:05.087Z,98952.59
2022-08-22T02:28:57.447Z,98954.47
2022-08-22T02:31:41.584Z,98954.06
2022-08-22T02:34:39.040Z,98946.34
2022-08-22T02:37:18.395Z,98953.81
2022-08-22T02:40:09.218Z,98950.56
2022-08-22T02:42:43.561Z,98953.06
2022-08-22T02:45:22.946Z,98954.72
2022-08-22T02:47:57.557Z,98959.22
2022-08-22T02:50:34.067Z,98942.75
2022-08-22T02:53:19.606Z,98947.00
2022-08-22T02:56:00.689Z,98960.84
2022-08-22T02:58:59.937Z,98955.00
2022-08-22T03:01:30.483Z,98960.69
2022-08-22T03:04:22.945Z,98959.88
2022-08-22T03:07:36.795Z,98956.03
2022-08-22T03:10:18.323Z,98958.53
2022-08-22T03:13:10.032Z,98954.75
2022-08-22T03:15:48.473Z,98952.03
2022-08-22T03:18:20.550Z,98964.72
2022-08-22T03:21:06.553Z,98975.00
2022-08-22T03:23:33.950Z,98958.47
2022-08-22T03:26:10.106Z,98968.06
2022-08-22T03:28:59.093Z,98973.97
2022-08-22T03:31:30.554Z,98968.00
2022-08-22T03:34:22.567Z,98983.59
2022-08-22T03:37:02.995Z,98979.22
2022-08-22T03:39:49.023Z,98977.13
2022-08-22T03:42:34.798Z,98973.84
2022-08-22T03:45:27.855Z,98987.72
2022-08-22T03:48:33.969Z,98989.25
2022-08-22T03:51:29.407Z,98990.19
2022-08-22T03:54:08.574Z,98989.91
2022-08-22T03:56:57.471Z,98996.13
2022-08-22T04:00:04.929Z,98997.78
2022-08-22T04:03:05.843Z,98996.06
2022-08-22T04:05:36.276Z,98987.81
2022-08-22T04:08:44.722Z,99003.34
2022-08-22T04:11:31.942Z,98988.91
2022-08-22T04:14:17.910Z,98992.25
2022-08-22T04:16:56.622Z,98987.72
2022-08-22T04:19:42.807Z,98991.38
2022-08-22T04:22:42.077Z,99004.56
2022-08-22T04:25:28.242Z,98996.66
2022-08-22T04:28:05.629Z,98997.28
2022-08-22T04:30:44.559Z,98988.16
2022-08-22T04:33:23.760Z,98995.03
2022-08-22T04:36:13.898Z,98984.97
2022-08-22T04:39:19.894Z,98994.78
2022-08-22T04:42:16.283Z,98991.03
2022-08-22T04:45:02.319Z,98989.94
2022-08-22T04:47:34.533Z,98992.50
2022-08-22T04:50:26.438Z,98992.31
2022-08-22T04:53:08.907Z,98996.50
2022-08-22T04:55:56.028Z,98987.94
2022-08-22T04:58:39.069Z,98971.59
2022-08-22T05:01:17.048Z,98994.19
2022-08-22T05:03:57.690Z,98975.59
2022-08-22T05:06:29.966Z,98994.94
2022-08-22T05:09:03.793Z,98992.91
2022-08-22T05:11:34.192Z,98992.28
2022-08-22T05:14:15.557Z,98990.78
2022-08-22T05:16:46.364Z,98981.72
2022-08-22T05:19:37.614Z,98982.69
2022-08-22T05:22:16.094Z,98984.72
2022-08-22T05:24:48.774Z,98987.16
2022-08-22T05:27:24.748Z,98980.38
2022-08-22T05:30:00.996Z,98990.91
2022-08-22T05:32:40.455Z,98988.13
2022-08-22T05:35:10.190Z,98990.53
2022-08-22T05:37:39.920Z,98988.06
2022-08-22T05:40:11.211Z,98983.16
2022-08-22T05:42:38.758Z,98974.88
2022-08-22T05:45:12.293Z,98983.38
2022-08-22T05:47:45.736Z,98986.47
2022-08-22T05:50:35.081Z,98992.47
2022-08-22T05:53:17.714Z,98988.03
2022-08-22T05:56:04.901Z,98988.38
2022-08-22T05:58:38.402Z,98981.13
2022-08-22T06:01:20.918Z,98981.81
2022-08-22T06:04:06.046Z,98985.31
2022-08-22T06:06:42.113Z,98986.38
2022-08-22T06:09:35.257Z,98989.72
2022-08-22T06:12:16.500Z,98987.13
2022-08-22T06:15:27.379Z,98981.56
2022-08-22T06:18:07.259Z,98976.81
2022-08-22T06:20:34.671Z,98964.38
2022-08-22T06:23:04.057Z,98971.97
2022-08-22T06:25:34.945Z,98968.13
2022-08-22T06:28:07.851Z,98967.94
2022-08-22T06:30:39.813Z,98966.75
2022-08-22T06:33:12.873Z,98965.59
2022-08-22T06:36:20.539Z,98970.59
2022-08-22T06:39:46.667Z,98961.03
2022-08-22T06:42:24.533Z,98962.03
2022-08-22T06:44:58.167Z,98951.56
2022-08-22T06:47:28.570Z,98968.69
2022-08-22T06:50:13.614Z,98966.13
2022-08-22T06:53:15.121Z,98956.50
2022-08-22T06:55:47.866Z,98965.50
2022-08-22T06:58:20.995Z,98955.59
2022-08-22T07:01:05.732Z,98958.22
2022-08-22T07:04:08.021Z,98946.19
2022-08-22T07:06:38.726Z,98948.59
2022-08-22T07:09:07.815Z,98939.09
2022-08-22T07:11:39.835Z,98948.81
2022-08-22T07:14:11.841Z,98954.25
2022-08-22T07:16:58.472Z,98948.78
2022-08-22T07:19:37.164Z,98956.50
2022-08-22T07:22:28.959Z,98953.78
2022-08-22T07:25:03.263Z,98942.69
2022-08-22T07:28:03.970Z,98942.63
2022-08-22T07:30:55.834Z,98945.06
2022-08-22T07:33:51.810Z,98942.50
2022-08-22T07:36:31.847Z,98947.16
2022-08-22T07:39:21.541Z,98940.00
2022-08-22T07:42:11.919Z,98928.91
2022-08-22T07:44:49.562Z,98936.13
2022-08-22T07:47:26.683Z,98933.66
2022-08-22T07:49:56.974Z,98928.09
2022-08-22T07:52:25.628Z,98933.88
2022-08-22T07:55:03.617Z,98934.59
2022-08-22T07:57:39.869Z,98935.03
2022-08-22T08:00:15.217Z,98935.91
2022-08-22T08:02:53.585Z,98931.88
2022-08-22T08:05:24.352Z,98931.44
2022-08-22T08:07:55.371Z,98935.88
2022-08-22T08:10:28.477Z,98929.81
2022-08-22T08:13:03.664Z,98928.25
2022-08-22T08:15:36.014Z,98938.66
2022-08-22T08:18:14.321Z,98928.69
2022-08-22T08:20:42.176Z,98913.06
2022-08-22T08:23:12.208Z,98921.59
2022-08-22T08:26:07.525Z,98912.53
2022-08-22T08:28:44.420Z,98909.03
2022-08-22T08:31:29.215Z,98922.34
2022-08-22T08:34:08.473Z,98916.94
2022-08-22T08:36:58.042Z,98919.78
2022-08-22T08:39:34.992Z,98914.00
2022-08-22T08:42:27.938Z,98914.81
2022-08-22T08:45:17.568Z,98910.06
2022-08-22T08:48:00.330Z,98906.50
2022-08-22T08:51:04.556Z,98916.75
2022-08-22T08:54:04.054Z,98911.81
2022-08-22T08:57:10.537Z,98916.63
2022-08-22T09:00:04.691Z,98908.56
2022-08-22T09:03:00.957Z,98914.06
2022-08-22T09:05:58.875Z,98915.28
2022-08-22T09:08:42.566Z,98907.84
2022-08-22T09:11:44.781Z,98894.28
2022-08-22T09:14:36.430Z,98915.41
2022-08-22T09:17:21.875Z,98921.72
2022-08-22T09:20:19.350Z,98917.53
2022-08-22T09:23:24.571Z,98919.75
2022-08-22T09:26:13.478Z,98915.34
2022-08-22T09:28:49.319Z,98898.75
2022-08-22T09:31:44.972Z,98906.88
2022-08-22T09:34:26.864Z,98912.34
2022-08-22T09:37:13.909Z,98909.00
2022-08-22T09:39:54.043Z,98901.19
2022-08-22T09:42:50.135Z,98910.91
2022-08-22T09:45:47.035Z,98901.47
2022-08-22T09:48:39.773Z,98907.56
2022-08-22T09:51:31.751Z,98902.69
2022-08-22T09:54:31.650Z,98901.22
2022-08-22T09:57:31.731Z,98897.88
2022-08-22T10:00:02.198Z,98890.31
2022-08-22T10:03:21.946Z,98893.03
2022-08-22T10:06:05.527Z,98895.09
2022-08-22T10:09:24.214Z,98898.75
2022-08-22T10:12:00.276Z,98890.44
2022-08-22T10:15:09.083Z,98896.47
2022-08-22T10:17:45.840Z,98894.00
2022-08-22T10:20:27.748Z,98903.00
2022-08-22T10:22:55.158Z,98896.19
2022-08-22T10:25:45.177Z,98902.53
2022-08-22T10:28:28.662Z,98889.78
2022-08-22T10:31:34.664Z,98890.50
2022-08-22T10:34:20.022Z,98880.84
2022-08-22T10:37:26.575Z,98882.88
2022-08-22T10:40:06.291Z,98883.41
2022-08-22T10:42:39.113Z,98884.44
2022-08-22T10:45:35.512Z,98886.47
2022-08-22T10:48:09.793Z,98878.06
2022-08-22T10:50:45.140Z,98880.59
2022-08-22T10:53:57.806Z,98881.63
2022-08-22T10:56:39.199Z,98879.81
2022-08-22T10:59:14.162Z,98880.34
2022-08-22T11:01:54.464Z,98880.03
2022-08-22T11:04:54.393Z,98871.09
2022-08-22T11:07:50.053Z,98874.41
2022-08-22T11:10:45.567Z,98876.41
2022-08-22T11:13:29.253Z,98870.97
2022-08-22T11:16:43.291Z,98868.00
2022-08-22T11:19:26.746Z,98871.13
2022-08-22T11:22:00.303Z,98859.13
2022-08-22T11:24:35.243Z,98859.00
2022-08-22T11:27:39.831Z,98866.81
2022-08-22T11:30:58.127Z,98865.31
2022-08-22T11:34:02.411Z,98863.50
2022-08-22T11:36:33.366Z,98857.47
2022-08-22T11:39:13.725Z,98858.06
2022-08-22T11:42:21.986Z,98850.34
2022-08-22T11:44:59.404Z,98863.41
2022-08-22T11:47:34.029Z,98862.25
2022-08-22T11:50:13.616Z,98865.56
2022-08-22T11:52:41.485Z,98855.97
2022-08-22T11:55:32.579Z,98852.63
2022-08-22T11:58:42.072Z,98863.19
2022-08-22T12:01:34.256Z,98864.94
2022-08-22T12:04:10.118Z,98857.44
2022-08-22T12:07:01.585Z,98849.81
2022-08-22T12:09:41.837Z,98849.72
2022-08-22T12:12:22.114Z,98850.72
2022-08-22T12:14:59.197Z,98858.44
2022-08-22T12:17:55.409Z,98844.75
2022-08-22T12:20:41.486Z,98856.00
2022-08-22T12:23:50.597Z,98859.00
2022-08-22T12:27:08.284Z,98857.09
2022-08-22T12:30:04.700Z,98853.16
2022-08-22T12:33:13.211Z,98856.78
2022-08-22T12:36:18.329Z,98851.63
2022-08-22T12:38:54.826Z,98853.19
2022-08-22T12:42:00.083Z,98849.13
2022-08-22T12:44:42.695Z,98851.19
2022-08-22T12:47:21.214Z,98849.16
2022-08-22T12:50:13.383Z,98847.09
2022-08-22T12:53:15.866Z,98844.53
2022-08-22T12:56:18.000Z,98839.34
2022-08-22T12:59:25.050Z,98844.53
2022-08-22T13:01:57.019Z,98844.91
2022-08-22T13:04:33.513Z,98853.00
2022-08-22T13:07:18.626Z,98849.53
2022-08-22T13:09:59.565Z,98845.22
2022-08-22T13:12:52.838Z,98842.72
2022-08-22T13:15:42.792Z,98842.63
2022-08-22T13:18:30.586Z,98846.84
2022-08-22T13:21:02.893Z,98852.78
2022-08-22T13:23:39.590Z,98847.81
2022-08-22T13:26:33.801Z,98848.31
2022-08-22T13:29:26.784Z,98849.22
2022-08-22T13:32:03.103Z,98849.47
2022-08-22T13:34:46.960Z,98844.34
2022-08-22T13:37:44.573Z,98849.00
2022-08-22T13:40:22.463Z,98847.81
2022-08-22T13:42:56.711Z,98852.63
2022-08-22T13:45:29.627Z,98852.84
2022-08-22T13:48:03.807Z,98858.34
2022-08-22T13:50:52.918Z,98852.94
2022-08-22T13:53:40.956Z,98861.56
2022-08-22T13:56:18.349Z,98855.84
2022-08-22T13:58:50.741Z,98848.84
2022-08-22T14:01:25.403Z,98858.09
2022-08-22T14:03:58.030Z,98856.72
2022-08-22T14:06:37.248Z,98858.66
2022-08-22T14:09:37.010Z,98861.72
2022-08-22T14:12:13.966Z,98860.72
2022-08-22T14:14:49.241Z,98857.25
2022-08-22T14:17:28.891Z,98865.25
2022-08-22T14:20:07.007Z,98870.34
2022-08-22T14:22:40.379Z,98869.19
2022-08-22T14:25:17.522Z,98882.38
2022-08-22T14:27:52.751Z,98878.84
2022-08-22T14:30:24.560Z,98872.16
2022-08-22T14:33:13.516Z,98869.16
2022-08-22T14:35:52.867Z,98876.19
2022-08-22T14:38:29.882Z,98867.41
2022-08-22T14:41:16.220Z,98879.75
2022-08-22T14:43:59.525Z,98878.50
2022-08-22T14:46:42.645Z,98882.25
2022-08-22T14:49:24.751Z,98878.88
2022-08-22T14:52:33.651Z,98882.34
2022-08-22T14:55:21.166Z,98883.66
2022-08-22T14:58:05.965Z,98885.56
2022-08-22T15:00:38.913Z,98883.41
2022-08-22T15:03:28.382Z,98894.22
2022-08-22T15:06:23.634Z,98894.19
2022-08-22T15:08:51.932Z,98890.25
2022-08-22T15:11:23.451Z,98884.75
2022-08-22T15:14:02.210Z,98896.28
2022-08-22T15:16:36.584Z,98892.16
2022-08-22T15:19:36.324Z,98894.56
2022-08-22T15:22:20.759Z,98900.56
2022-08-22T15:25:07.139Z,98900.03
2022-08-22T15:27:48.853Z,98903.88
2022-08-22T15:30:21.083Z,98896.25
2022-08-22T15:32:49.312Z,98901.66
2022-08-22T15:35:29.964Z,98902.72
2022-08-22T15:38:08.458Z,98904.00
2022-08-22T15:40:45.694Z,98919.94
2022-08-22T15:43:21.891Z,98912.34
2022-08-22T15:45:53.018Z,98917.16
2022-08-22T15:48:31.393Z,98926.28
2022-08-22T15:51:02.486Z,98924.75
2022-08-22T15:53:52.797Z,98921.66
2022-08-22T15:56:36.830Z,98928.91
2022-08-22T15:59:48.014Z,98929.38
2022-08-22T16:02:40.435Z,98922.13
2022-08-22T16:05:10.865Z,98918.38
2022-08-22T16:07:41.487Z,98921.44
2022-08-22T16:10:32.743Z,98933.25
2022-08-22T16:13:38.170Z,98929.69
2022-08-22T16:16:27.051Z,98931.34
2022-08-22T16:18:54.719Z,98925.59
2022-08-22T16:21:22.446Z,98922.03
2022-08-22T16:23:58.798Z,98930.56
2022-08-22T16:26:32.781Z,98929.47
2022-08-22T16:29:07.090Z,98936.53
2022-08-22T16:31:44.185Z,98933.72
2022-08-22T16:34:20.775Z,98932.97
2022-08-22T16:36:48.257Z,98924.22
2022-08-22T16:39:21.728Z,98944.34
2022-08-22T16:42:16.544Z,98937.19
2022-08-22T16:45:11.020Z,98945.97
2022-08-22T16:47:58.707Z,98942.38
2022-08-22T16:50:30.499Z,98936.94
2022-08-22T16:53:08.257Z,98948.69
2022-08-22T16:55:36.302Z,98931.47
2022-08-22T16:58:56.929Z,98944.75
2022-08-22T17:01:43.246Z,98939.13
2022-08-22T17:04:27.163Z,98945.44
2022-08-22T17:07:10.857Z,98948.19
2022-08-22T17:10:00.672Z,98940.56
2022-08-22T17:12:40.339Z,98945.53
2022-08-22T17:15:26.184Z,98945.22
2022-08-22T17:18:11.745Z,98946.47
2022-08-22T17:21:07.362Z,98954.44
2022-08-22T17:23:44.005Z,98946.09
2022-08-22T17:26:49.677Z,98949.69
2022-08-22T17:29:24.771Z,98942.91
2022-08-22T17:32:18.514Z,98948.09
2022-08-22T17:35:32.873Z,98941.16
2022-08-22T17:38:00.526Z,98943.66
2022-08-22T17:40:38.268Z,98947.75
2022-08-22T17:43:27.320Z,98951.16
2022-08-22T17:46:03.019Z,98933.38
2022-08-22T17:48:48.455Z,98943.41
2022-08-22T17:51:34.611Z,98942.53
2022-08-22T17:54:13.297Z,98951.06
2022-08-22T17:57:03.257Z,98940.44
2022-08-22T17:59:49.036Z,98946.72
2022-08-22T18:02:39.754Z,98940.72
2022-08-22T18:05:17.239Z,98938.78
2022-08-22T18:07:59.002Z,98946.31
2022-08-22T18:10:48.507Z,98943.22
2022-08-22T18:13:34.803Z,98942.31
2022-08-22T18:16:12.238Z,98953.16
2022-08-22T18:19:14.047Z,98946.63
2022-08-22T18:21:50.261Z,98948.91
2022-08-22T18:24:33.302Z,98947.09
2022-08-22T18:27:09.720Z,98946.84
2022-08-22T18:30:02.959Z,98945.41
2022-08-22T18:32:43.151Z,98942.38
2022-08-22T18:35:21.890Z,98945.41
2022-08-22T18:38:18.281Z,98951.16
2022-08-22T18:40:54.723Z,98931.47
2022-08-22T18:43:30.431Z,98941.22
2022-08-22T18:46:03.939Z,98940.66
2022-08-22T18:49:11.577Z,98926.16
2022-08-22T18:51:38.605Z,98937.59
2022-08-22T18:54:07.140Z,98925.75
2022-08-22T18:56:37.655Z,98936.47
2022-08-22T18:59:29.260Z,98936.63
2022-08-22T19:02:14.938Z,98932.69
2022-08-22T19:05:09.480Z,98929.19
2022-08-22T19:07:37.008Z,98922.56
2022-08-22T19:10:23.022Z,98935.28
2022-08-22T19:13:05.820Z,98937.44
2022-08-22T19:16:01.358Z,98928.88
2022-08-22T19:18:34.749Z,98935.44
2022-08-22T19:21:43.933Z,98935.84
2022-08-22T19:24:36.944Z,98935.44
2022-08-22T19:27:07.497Z,98934.19
2022-08-22T19:29:34.924Z,98930.41
2022-08-22T19:32:13.255Z,98941.59
2022-08-22T19:34:46.887Z,98932.19
2022-08-22T19:37:31.011Z,98930.19
2022-08-22T19:40:10.509Z,98939.94
2022-08-22T19:42:44.432Z,98936.16
2022-08-22T19:45:26.734Z,98939.50
2022-08-22T19:48:13.155Z,98931.94
2022-08-22T19:50:43.392Z,98947.47
2022-08-22T19:53:20.090Z,98941.13
2022-08-22T19:56:12.986Z,98942.47
2022-08-22T19:59:12.701Z,98939.03
2022-08-22T20:01:40.159Z,98931.97
2022-08-22T20:04:45.061Z,98941.38
2022-08-22T20:07:42.407Z,98942.03
2022-08-22T20:10:34.134Z,98937.69
2022-08-22T20:13:07.570Z,98934.19
2022-08-22T20:16:03.201Z,98937.13
2022-08-22T20:19:06.145Z,98934.88
2022-08-22T20:21:39.334Z,98940.00
2022-08-22T20:24:11.983Z,98937.50
2022-08-22T20:26:57.558Z,98936.59
2022-08-22T20:29:35.499Z,98946.03
2022-08-22T20:32:05.570Z,98946.06
2022-08-22T20:34:38.215Z,98950.06
2022-08-22T20:37:39.885Z,98946.03
2022-08-22T20:40:51.815Z,98951.72
2022-08-22T20:43:32.825Z,98953.47
2022-08-22T20:46:19.253Z,98947.66
2022-08-22T20:48:51.368Z,98947.16
2022-08-22T20:51:25.253Z,98959.84
2022-08-22T20:54:10.244Z,98953.03
2022-08-22T20:56:53.461Z,98955.63
2022-08-22T20:59:42.185Z,98960.69
2022-08-22T21:02:29.002Z,98956.53
2022-08-22T21:05:13.686Z,98968.91
2022-08-22T21:07:44.379Z,98971.41
2022-08-22T21:10:39.433Z,98967.16
2022-08-22T21:13:23.754Z,98970.66
2022-08-22T21:16:00.856Z,98972.53
2022-08-22T21:18:33.751Z,98963.22
2022-08-22T21:21:19.341Z,98971.91
2022-08-22T21:24:01.642Z,98974.34
2022-08-22T21:26:40.406Z,98970.97
2022-08-22T21:29:23.836Z,98975.03
2022-08-22T21:32:04.416Z,98973.72
2022-08-22T21:34:42.492Z,98973.56
2022-08-22T21:37:36.564Z,98974.78
2022-08-22T21:40:15.364Z,98971.47
2022-08-22T21:42:46.123Z,98983.38
2022-08-22T21:45:47.302Z,98983.38
2022-08-22T21:48:36.514Z,98990.28
2022-08-22T21:51:25.055Z,98984.00
2022-08-22T21:54:30.609Z,98988.06
2022-08-22T21:57:17.432Z,98988.13
2022-08-22T21:59:52.006Z,98986.81
2022-08-22T22:02:29.501Z,98981.50
2022-08-22T22:05:00.019Z,98986.66
2022-08-22T22:07:28.532Z,98993.38
2022-08-22T22:09:56.216Z,98990.69
2022-08-22T22:12:24.488Z,98989.94
2022-08-22T22:14:52.281Z,98986.91
2022-08-22T22:17:20.745Z,98996.78
2022-08-22T22:19:48.849Z,98992.13
2022-08-22T22:22:17.132Z,98991.78
2022-08-22T22:24:44.816Z,98983.91
2022-08-22T22:27:16.753Z,98986.78
2022-08-22T22:29:44.694Z,98980.47
2022-08-22T22:32:12.182Z,98988.31
2022-08-22T22:34:39.665Z,98982.13
2022-08-22T22:37:12.218Z,98996.03
2022-08-22T22:39:39.931Z,98990.28
2022-08-22T22:42:09.161Z,98983.72
2022-08-22T22:44:36.699Z,98984.50
2022-08-22T22:47:05.828Z,98988.03
2022-08-22T22:49:33.702Z,98984.56
2022-08-22T22:52:02.204Z,98986.69
2022-08-22T22:54:30.989Z,98982.47
2022-08-22T22:57:02.138Z,98985.28
2022-08-22T22:59:29.555Z,98984.16
2022-08-22T23:02:11.255Z,98995.59
2022-08-22T23:04:41.388Z,98989.19
2022-08-22T23:07:11.254Z,98988.13
2022-08-22T23:09:44.787Z,98988.94
2022-08-22T23:12:14.657Z,98989.38
2022-08-22T23:14:42.226Z,98987.03
2022-08-22T23:17:10.131Z,98988.59
2022-08-22T23:19:39.157Z,98996.16
2022-08-22T23:22:08.081Z,98989.50
2022-08-22T23:24:38.195Z,98996.94
2022-08-22T23:27:07.307Z,99001.69
2022-08-22T23:29:34.974Z,98993.88
2022-08-22T23:32:04.237Z,98992.66
2022-08-22T23:34:35.319Z,98992.94
2022-08-22T23:37:06.444Z,98991.94
2022-08-22T23:39:35.165Z,98998.25
2022-08-22T23:42:03.039Z,99000.34
2022-08-22T23:44:33.099Z,98988.16
2022-08-22T23:47:01.472Z,98996.84
2022-08-22T23:49:30.380Z,99006.34
2022-08-22T23:51:58.901Z,98997.75
2022-08-22T23:54:26.708Z,98990.91
2022-08-22T23:56:57.818Z,99005.91
2022-08-22T23:59:30.981Z,99005.50
